Stations météo

réclame
Mon MeteoGroup
Albacete, Espagne (8279): Température de l'air & dewpoint: 10.08.2018 03:00:00 - 16.08.2018 03:00:00 (CEST)Albacete, Espagne (8279): Vitesse du vent & gusts: 10.08.2018 03:00:00 - 16.08.2018 03:00:00 (CEST)Albacete, Espagne (8279): Direction du vent: 10.08.2018 03:00:00 - 16.08.2018 03:00:00 (CEST)Albacete, Espagne (8279): reduced air pressure: 10.08.2018 03:00:00 - 16.08.2018 03:00:00 (CEST)Albacete, Espagne (8279): Quantités de précipitations: 10.08.2018 03:00:00 - 16.08.2018 03:00:00 (CEST)
Date & Time tt [°C] td [°C] ff [km/h] ff [knt] fx [km/h] fx [knt] dd ppp [hPa] rr [mm]
16.08.2018 03:00:00 21,5 19,3 5 3 28 15 SSW 1015,4 1,5
16.08.2018 02:00:00 22,7 18,5 7 4 26 14 SE 1014,8 -
16.08.2018 01:00:00 23,0 18,3 5 3 25 13 SSE 1015,1 0,0
16.08.2018 00:00:00 23,2 19,6 8 4 25 13 SSE 1015,1 0,0
15.08.2018 23:00:00 24,0 20,3 6 4 28 15 SSE 1014,3 0,0
15.08.2018 22:00:00 25,0 20,5 9 5 31 17 SE 1013,8 0,0
15.08.2018 21:00:00 25,7 20,1 12 7 33 18 SSE 1013,3 0,0
15.08.2018 20:00:00 27,4 18,9 9 5 28 15 S 1012,6 -
15.08.2018 19:00:00 30,0 16,4 7 4 28 15 S 1011,5 0,0
15.08.2018 18:00:00 31,4 16,6 6 4 23 13 S 1011,2 0,0
15.08.2018 17:00:00 30,8 15,6 6 3 28 15 SSE 1011,7 0,0
15.08.2018 16:00:00 32,3 17,0 6 3 24 13 S 1012,2 0,0
15.08.2018 15:00:00 30,4 17,1 8 4 24 13 S 1013,2 0,0
15.08.2018 14:00:00 29,9 18,0 9 5 25 14 SE 1013,9 -
15.08.2018 13:00:00 28,3 17,8 8 5 24 13 S 1014,8 0,0
15.08.2018 12:00:00 26,5 18,1 7 4 25 14 S 1015,5 0,0
15.08.2018 11:00:00 25,0 18,9 8 5 24 13 SE 1015,8 0,0
15.08.2018 10:00:00 23,6 19,1 10 5 23 13 SE 1016,1 0,0
15.08.2018 09:00:00 22,0 19,6 10 5 21 12 SE 1016,5 0,0
15.08.2018 08:00:00 21,3 19,1 5 3 16 9 ESE 1016,6 -
15.08.2018 07:00:00 21,7 19,1 7 4 16 9 SE 1016,3 0,0
15.08.2018 06:00:00 22,4 19,3 4 2 19 10 ESE 1015,8 0,0
15.08.2018 05:00:00 22,8 19,3 6 3 19 10 E 1015,7 0,0
15.08.2018 04:00:00 23,0 19,3 5 3 17 9 E 1015,8 0,0
15.08.2018 03:00:00 23,1 20,1 5 3 13 7 E 1016,1 0,0
15.08.2018 02:00:00 22,9 19,6 4 2 14 7 E 1016,2 -
15.08.2018 01:00:00 24,4 20,5 4 2 15 8 E 1015,7 0,0
15.08.2018 00:00:00 25,0 20,3 7 4 26 14 SE 1015,1 0,0
14.08.2018 23:00:00 26,2 19,8 5 3 29 16 SSE 1014,0 0,0
14.08.2018 22:00:00 27,3 19,6 10 6 31 17 SE 1013,1 0,0
14.08.2018 21:00:00 30,2 17,0 10 5 26 14 SE 1011,9 0,0
14.08.2018 20:00:00 33,4 10,0 3 1 14 8 WNW 1010,5 -
14.08.2018 19:00:00 33,3 10,0 4 2 13 7 W 1010,7 0,0
14.08.2018 18:00:00 34,3 11,4 6 3 20 11 W 1010,9 0,0
14.08.2018 17:00:00 34,7 12,4 4 2 16 9 WNW 1010,9 0,0
14.08.2018 16:00:00 34,1 13,0 5 3 17 9 NE 1011,4 0,0
14.08.2018 15:00:00 32,7 12,8 4 2 17 9 WNW 1012,3 0,0
14.08.2018 14:00:00 30,7 13,1 7 4 16 9 W 1013,3 -
14.08.2018 13:00:00 29,2 12,6 4 2 14 8 S 1014,3 0,0
14.08.2018 12:00:00 26,3 11,7 3 2 14 8 W 1015,0 0,0
14.08.2018 11:00:00 23,3 14,3 1 1 9 5 WSW 1015,7 0,0
14.08.2018 10:00:00 21,3 14,4 3 2 8 5 SSW 1016,0 0,0
14.08.2018 09:00:00 19,0 17,3 1 1 5 3 ENE 1016,3 0,0
14.08.2018 08:00:00 18,1 14,0 0 0 3 2 ESE 1016,2 -
14.08.2018 07:00:00 18,5 12,4 1 0 4 2 N 1015,7 0,0
14.08.2018 06:00:00 19,9 8,3 1 1 6 4 N 1014,6 0,0
14.08.2018 05:00:00 21,3 8,5 4 2 7 4 W 1014,0 0,0
14.08.2018 04:00:00 21,2 7,7 0 0 8 4 SSW 1014,0 0,0
14.08.2018 03:00:00 22,7 8,0 1 1 14 7 NE 1013,5 0,0
14.08.2018 02:00:00 24,0 8,4 6 4 18 10 WSW 1012,7 -
14.08.2018 01:00:00 25,1 8,5 6 3 15 8 WSW 1012,4 0,0
14.08.2018 00:00:00 25,8 8,8 6 4 14 8 WSW 1012,0 0,0
13.08.2018 23:00:00 27,3 7,7 5 3 14 7 W 1010,8 0,0
13.08.2018 22:00:00 29,1 7,7 4 2 15 8 WNW 1009,7 0,0
13.08.2018 21:00:00 31,0 8,1 4 2 23 12 WNW 1008,8 0,0
13.08.2018 20:00:00 32,8 8,9 5 3 27 14 WNW 1008,0 -
13.08.2018 19:00:00 33,3 9,3 8 5 29 16 W 1007,7 0,0
13.08.2018 18:00:00 34,4 12,1 6 4 24 13 WSW 1007,5 0,0
13.08.2018 17:00:00 33,8 11,7 8 4 29 15 W 1008,3 0,0
13.08.2018 16:00:00 33,5 11,3 8 5 24 13 W 1009,1 0,0
13.08.2018 15:00:00 32,5 12,2 4 2 26 14 WNW 1009,7 0,0
13.08.2018 14:00:00 31,6 12,8 6 3 29 15 WNW 1010,6 -
13.08.2018 13:00:00 30,4 13,3 5 3 20 11 W 1011,1 0,0
13.08.2018 12:00:00 28,2 14,8 6 3 15 8 W 1012,3 0,0
13.08.2018 11:00:00 25,3 17,0 6 3 18 10 SW 1013,0 0,0
13.08.2018 10:00:00 23,6 18,5 8 5 23 12 S 1013,2 0,0
13.08.2018 09:00:00 21,5 20,3 6 3 21 11 S 1013,6 0,0
13.08.2018 08:00:00 20,8 19,6 8 5 21 11 S 1013,4 -
13.08.2018 07:00:00 21,2 19,0 5 3 20 11 S 1013,1 0,0
13.08.2018 06:00:00 21,5 19,4 4 2 22 12 S 1012,7 0,0
13.08.2018 05:00:00 22,0 19,7 4 2 26 14 S 1012,8 0,0
13.08.2018 04:00:00 22,4 19,9 7 4 27 14 SSE 1012,7 0,0
13.08.2018 03:00:00 22,7 19,1 7 4 18 10 SE 1013,0 0,0
13.08.2018 02:00:00 22,4 20,3 9 5 25 13 E 1014,1 -
13.08.2018 01:00:00 24,8 18,5 4 2 23 12 NE 1013,2 0,0
13.08.2018 00:00:00 25,4 18,1 8 4 25 14 SSE 1012,2 0,0
12.08.2018 23:00:00 26,1 17,7 8 5 20 11 SE 1012,0 0,0
12.08.2018 22:00:00 27,4 17,0 6 3 20 11 SSE 1011,6 0,0
12.08.2018 21:00:00 29,0 16,6 5 3 25 13 SSE 1010,6 0,0
12.08.2018 20:00:00 30,7 15,2 5 3 20 11 S 1009,7 -
12.08.2018 19:00:00 32,5 14,1 5 3 22 12 SSE 1009,6 0,0
12.08.2018 18:00:00 30,3 14,4 5 3 14 8 SSW 1009,9 0,0
12.08.2018 17:00:00 29,3 16,1 2 1 22 12 WNW 1011,7 0,0
12.08.2018 16:00:00 30,5 14,1 4 2 16 9 SSW 1012,1 0,0
12.08.2018 15:00:00 32,1 15,2 6 3 22 12 S 1012,2 0,0
12.08.2018 14:00:00 31,9 15,4 5 3 17 9 S 1013,0 -
12.08.2018 13:00:00 31,6 16,4 3 2 12 6 ESE 1013,5 0,0
12.08.2018 12:00:00 28,8 16,4 3 2 11 6 SE 1014,7 0,0
12.08.2018 11:00:00 25,7 16,6 3 2 12 7 ESE 1015,5 0,0
12.08.2018 10:00:00 23,3 16,8 5 3 14 8 ESE 1016,5 0,0
12.08.2018 09:00:00 21,0 17,6 4 2 14 7 ESE 1017,3 0,0
12.08.2018 08:00:00 20,3 18,4 4 2 14 8 E 1017,1 -
12.08.2018 07:00:00 20,5 18,2 5 3 11 6 E 1016,9 0,0
12.08.2018 06:00:00 20,9 18,3 2 1 15 8 E 1017,0 0,0
12.08.2018 05:00:00 21,4 18,2 5 3 15 8 E 1017,0 0,0
12.08.2018 04:00:00 21,9 17,9 4 2 16 9 SE 1017,5 0,0
12.08.2018 03:00:00 22,4 17,5 4 2 19 10 SSE 1017,7 0,0
12.08.2018 02:00:00 22,9 17,6 7 4 25 14 SSE 1017,7 -
12.08.2018 01:00:00 23,7 17,5 8 5 27 14 SSE 1017,9 0,0
12.08.2018 00:00:00 24,4 17,4 8 4 28 15 SE 1017,9 0,0
11.08.2018 23:00:00 25,4 16,8 4 2 26 14 S 1017,6 0,0
11.08.2018 22:00:00 26,5 16,5 6 4 25 13 S 1016,8 0,0
11.08.2018 21:00:00 28,1 16,0 6 4 24 13 SE 1016,3 0,0
11.08.2018 20:00:00 30,4 16,8 8 4 23 13 SSE 1014,8 -
11.08.2018 19:00:00 30,5 16,5 8 4 25 13 SE 1014,9 0,0
11.08.2018 18:00:00 32,3 17,0 6 4 23 13 SE 1014,8 0,0
11.08.2018 17:00:00 32,1 16,8 7 4 23 12 SSE 1015,4 0,0
11.08.2018 16:00:00 31,8 16,9 6 3 23 12 S 1016,2 0,0
11.08.2018 15:00:00 30,8 16,8 9 5 25 13 SE 1017,4 0,0
11.08.2018 14:00:00 29,3 16,5 11 6 34 18 SE 1018,8 -
11.08.2018 13:00:00 28,2 17,1 9 5 27 14 SE 1019,4 0,0
11.08.2018 12:00:00 26,3 17,9 8 4 25 14 ESE 1020,6 0,0
11.08.2018 11:00:00 24,8 19,0 6 4 21 12 SE 1020,8 0,0
11.08.2018 10:00:00 23,4 20,0 8 4 22 12 ESE 1021,0 0,0
11.08.2018 09:00:00 21,9 20,4 6 4 16 9 ESE 1021,1 0,0
11.08.2018 08:00:00 21,2 19,8 7 4 14 8 SE 1020,8 -
11.08.2018 07:00:00 21,2 19,7 3 2 11 6 E 1020,7 0,0
11.08.2018 06:00:00 21,5 20,0 1 1 10 6 ENE 1020,6 0,0
11.08.2018 05:00:00 21,6 20,1 5 3 13 7 E 1020,7 0,0
11.08.2018 04:00:00 22,0 20,3 3 2 16 9 E 1020,8 0,0
11.08.2018 03:00:00 22,4 20,3 4 2 14 8 E 1020,7 0,0
11.08.2018 02:00:00 22,5 20,3 4 2 14 8 E 1021,3 -
11.08.2018 01:00:00 22,7 20,3 5 3 15 8 E 1021,4 0,0
11.08.2018 00:00:00 23,4 20,3 4 2 19 11 E 1021,1 0,0
10.08.2018 23:00:00 23,6 19,9 7 4 28 15 E 1020,5 0,0
10.08.2018 22:00:00 24,2 19,9 10 6 32 17 E 1019,8 0,0
10.08.2018 21:00:00 24,0 19,3 6 3 29 16 E 1019,3 0,0
10.08.2018 20:00:00 26,7 18,8 6 3 40 21 E 1017,9 -
10.08.2018 19:00:00 30,6 16,6 11 6 31 17 SE 1015,3 0,0
10.08.2018 18:00:00 33,2 15,3 8 5 22 12 SE 1014,5 0,0
10.08.2018 17:00:00 32,9 15,0 6 3 22 12 SSE 1015,4 0,0
10.08.2018 16:00:00 31,4 15,0 4 2 27 14 SSE 1016,6 0,0
10.08.2018 15:00:00 31,0 15,8 6 4 25 14 SSE 1017,1 0,0
10.08.2018 14:00:00 29,2 16,7 6 3 24 13 ESE 1017,9 -
10.08.2018 13:00:00 27,6 17,1 9 5 25 14 ESE 1018,7 0,0
10.08.2018 12:00:00 26,3 17,1 8 4 23 12 E 1019,2 0,0
10.08.2018 11:00:00 24,0 17,5 8 4 26 14 E 1019,8 0,0
10.08.2018 10:00:00 22,8 17,7 8 4 22 12 E 1019,9 0,0
10.08.2018 09:00:00 21,6 18,4 5 3 22 12 E 1019,8 0,0
10.08.2018 08:00:00 20,8 17,8 5 3 22 12 ENE 1019,3 -
10.08.2018 07:00:00 21,6 17,8 7 4 24 13 E 1018,9 0,0
10.08.2018 06:00:00 21,3 20,1 3 2 12 6 ENE 1018,1 0,0
10.08.2018 05:00:00 21,0 20,0 5 3 13 7 E 1017,5 0,0
10.08.2018 04:00:00 21,2 20,1 3 2 11 6 E 1016,9 0,0
10.08.2018 03:00:00 21,6 19,3 5 3 13 7 ENE 1016,8 0,0

tt = Température de l'air
td = dewpoint
ff = Vitesse du vent
fx = gusts
dd = Direction du vent
ppp = reduced air pressure
rr = Quantités de précipitations

stations d'obs. à proximité